EWG2M EDLP-EDDG
Flight info
| Callsign | EWG2M |
|---|---|
| Flight time | 0h 14m |
| Altitude | 10000 |
| Route | HMM8W HMM |
| Aircraft | A20N/M-SDE2E3FGHIRWXY/LB1 |
Departure
| Time | 2026-05-04 09:17 |
|---|---|
| Airport | Paderborn Lippstadt Airport (EDLP) |
Arrival
| Time | 2026-05-04 09:32 |
|---|---|
| Airport | Münster Osnabrück Airport (EDDG) |
| Time | Latitude | Longitude | Altitude | Speed | Heading |
|---|---|---|---|---|---|
| 2026-05-04 09:01 | 51.61122 | 8.61924 | 708 ft | 0 kts | 147° |
| 2026-05-04 09:09 | 51.61131 | 8.61914 | 697 ft | 2 kts | 147° |
| 2026-05-04 09:09 | 51.61145 | 8.61900 | 697 ft | 2 kts | 145° |
| 2026-05-04 09:09 | 51.61157 | 8.61883 | 704 ft | 2 kts | 126° |
| 2026-05-04 09:10 | 51.61159 | 8.61866 | 702 ft | 0 kts | 62° |
| 2026-05-04 09:14 | 51.61499 | 8.62342 | 701 ft | 20 kts | 57° |
| 2026-05-04 09:14 | 51.61548 | 8.62462 | 695 ft | 21 kts | 57° |
| 2026-05-04 09:14 | 51.61634 | 8.62672 | 693 ft | 24 kts | 57° |
| 2026-05-04 09:14 | 51.61728 | 8.62902 | 696 ft | 26 kts | 57° |
| 2026-05-04 09:15 | 51.61847 | 8.63068 | 692 ft | 16 kts | 356° |
| 2026-05-04 09:15 | 51.61866 | 8.63061 | 694 ft | 0 kts | 341° |
| 2026-05-04 09:15 | 51.61895 | 8.63033 | 696 ft | 17 kts | 317° |
| 2026-05-04 09:15 | 51.61903 | 8.62839 | 691 ft | 8 kts | 240° |
| 2026-05-04 09:17 | 51.58194 | 8.51475 | 4973 ft | 238 kts | 279° |
| 2026-05-04 09:18 | 51.58806 | 8.49069 | 6421 ft | 228 kts | 296° |
| 2026-05-04 09:18 | 51.59593 | 8.46928 | 7814 ft | 215 kts | 298° |
| 2026-05-04 09:18 | 51.60357 | 8.44912 | 8990 ft | 216 kts | 300° |
| 2026-05-04 09:18 | 51.61362 | 8.42982 | 9717 ft | 239 kts | 316° |
| 2026-05-04 09:19 | 51.62870 | 8.41418 | 9983 ft | 275 kts | 329° |
| 2026-05-04 09:19 | 51.64038 | 8.40519 | 10008 ft | 284 kts | 333° |
| 2026-05-04 09:19 | 51.65159 | 8.39743 | 9992 ft | 275 kts | 334° |
| 2026-05-04 09:19 | 51.66867 | 8.38634 | 9859 ft | 262 kts | 335° |
| 2026-05-04 09:20 | 51.68549 | 8.37568 | 9502 ft | 257 kts | 335° |
| 2026-05-04 09:20 | 51.70201 | 8.36525 | 9279 ft | 253 kts | 335° |
| 2026-05-04 09:20 | 51.71847 | 8.35480 | 9068 ft | 253 kts | 335° |
| 2026-05-04 09:20 | 51.73486 | 8.34433 | 8818 ft | 253 kts | 335° |
| 2026-05-04 09:21 | 51.75145 | 8.33365 | 8574 ft | 262 kts | 335° |
| 2026-05-04 09:21 | 51.76961 | 8.32163 | 8354 ft | 310 kts | 334° |
| 2026-05-04 09:21 | 51.79037 | 8.30743 | 8114 ft | 333 kts | 334° |
| 2026-05-04 09:21 | 51.81270 | 8.29205 | 7791 ft | 360 kts | 334° |
| 2026-05-04 09:22 | 51.82812 | 8.28142 | 7474 ft | 368 kts | 335° |
| 2026-05-04 09:22 | 51.84299 | 8.27122 | 7175 ft | 373 kts | 335° |
| 2026-05-04 09:22 | 51.86706 | 8.25488 | 6763 ft | 376 kts | 335° |
| 2026-05-04 09:22 | 51.89096 | 8.23887 | 6447 ft | 375 kts | 336° |
| 2026-05-04 09:23 | 51.91513 | 8.22287 | 6136 ft | 374 kts | 336° |
| 2026-05-04 09:23 | 51.93921 | 8.20706 | 5827 ft | 372 kts | 336° |
| 2026-05-04 09:23 | 51.96325 | 8.19134 | 5522 ft | 371 kts | 336° |
| 2026-05-04 09:23 | 51.98686 | 8.17592 | 5232 ft | 370 kts | 336° |
| 2026-05-04 09:25 | 52.13724 | 8.08173 | 3111 ft | 286 kts | 340° |
| 2026-05-04 09:25 | 52.15541 | 8.07306 | 2972 ft | 264 kts | 342° |
| 2026-05-04 09:26 | 52.17209 | 8.06503 | 2970 ft | 235 kts | 335° |
| 2026-05-04 09:26 | 52.18429 | 8.05101 | 3002 ft | 199 kts | 313° |
| 2026-05-04 09:26 | 52.19380 | 8.03534 | 2990 ft | 192 kts | 314° |
| 2026-05-04 09:26 | 52.20002 | 8.01820 | 2997 ft | 173 kts | 276° |
| 2026-05-04 09:27 | 52.20039 | 8.01162 | 3002 ft | 172 kts | 269° |
| 2026-05-04 09:27 | 52.19901 | 7.99343 | 3012 ft | 168 kts | 255° |
| 2026-05-04 09:27 | 52.19563 | 7.97525 | 2997 ft | 167 kts | 250° |
| 2026-05-04 09:27 | 52.19182 | 7.95711 | 2997 ft | 170 kts | 249° |
| 2026-05-04 09:28 | 52.18779 | 7.93906 | 2994 ft | 169 kts | 248° |
| 2026-05-04 09:28 | 52.18396 | 7.92127 | 2977 ft | 168 kts | 250° |
| 2026-05-04 09:28 | 52.18042 | 7.90289 | 2821 ft | 169 kts | 252° |
| 2026-05-04 09:28 | 52.17682 | 7.88461 | 2580 ft | 168 kts | 250° |
| 2026-05-04 09:29 | 52.17292 | 7.86654 | 2345 ft | 170 kts | 249° |
| 2026-05-04 09:29 | 52.16901 | 7.84821 | 2102 ft | 171 kts | 250° |
| 2026-05-04 09:29 | 52.16521 | 7.83022 | 1878 ft | 169 kts | 250° |
| 2026-05-04 09:29 | 52.16146 | 7.81245 | 1642 ft | 162 kts | 250° |
| 2026-05-04 09:30 | 52.15790 | 7.79546 | 1427 ft | 154 kts | 250° |
| 2026-05-04 09:30 | 52.15452 | 7.77929 | 1228 ft | 148 kts | 250° |
| 2026-05-04 09:30 | 52.15128 | 7.76347 | 1046 ft | 148 kts | 251° |
| 2026-05-04 09:30 | 52.14794 | 7.74734 | 832 ft | 150 kts | 249° |
| 2026-05-04 09:31 | 52.14448 | 7.73129 | 656 ft | 151 kts | 249° |
| 2026-05-04 09:31 | 52.14112 | 7.71516 | 423 ft | 149 kts | 249° |
| 2026-05-04 09:31 | 52.13776 | 7.69951 | 224 ft | 146 kts | 249° |
| 2026-05-04 09:31 | 52.13459 | 7.68475 | 170 ft | 111 kts | 250° |
| 2026-05-04 09:32 | 52.13291 | 7.67659 | 168 ft | 61 kts | 251° |
| 2026-05-04 09:32 | 52.13182 | 7.67147 | 167 ft | 25 kts | 251° |
| 2026-05-04 09:34 | 52.13249 | 7.68289 | 169 ft | 27 kts | 72° |
| 2026-05-04 09:34 | 52.13311 | 7.68582 | 169 ft | 29 kts | 72° |
| 2026-05-04 09:34 | 52.13380 | 7.68922 | 168 ft | 33 kts | 69° |
| 2026-05-04 09:34 | 52.13424 | 7.69206 | 166 ft | 15 kts | 123° |
| 2026-05-04 09:35 | 52.13353 | 7.69265 | 167 ft | 12 kts | 161° |
| 2026-05-04 09:35 | 52.13254 | 7.69317 | 167 ft | 17 kts | 168° |
| 2026-05-04 09:35 | 52.13233 | 7.69330 | 167 ft | 3 kts | 117° |
| 2026-05-04 09:35 | 52.13238 | 7.69409 | 167 ft | 6 kts | 122° |
| 2026-05-04 09:37 | 52.13168 | 7.69372 | 167 ft | 0 kts | 198° |